Biggs Army Air Field (Fort Bliss)
KBIF : now visible

Airfield :











YOU CAN JOIN US ON...

 
LOGIN :

Register | Disclaimer

   EN    FR    IT 

 









Legend :    VFR   Marginal VFR   IFR   Intensive IFR   Very Intensive IFR
Visi :
Ceiling :
>= 8 km
>= 3000ft
5 to 8 km
1000 to 3000 ft
1500m to 5 km
500 to 1000 ft
800 to 1500m
200 to 500 ft
< 800m
< 200 ft
Symbols :   Thunderstorms  Fog  Heavy snow  Heavy precipitations  Wind > 20 kt







- Airport Elevation : 3946 ft


KBIF - Biggs Army Air Field (Fort Bliss)

CURRENT METAR :
  • 211558Z AUTO 26009KT 10SM CLR 24/M01 A3001 RMK AO2 SLP096 T02371009 $

EXPIRED METARs :
  • 211458Z AUTO 25008KT 10SM CLR 23/M02 A3000 RMK AO2 SLP093 T02271016 51013 $
  • 211358Z AUTO 29003KT 10SM CLR 22/M02 A3000 RMK AO2 SLP095 T02151024 $
  • 211258Z AUTO 30008KT 10SM CLR 20/M03 A2998 RMK AO2 SLP088 T02011029 $

TAF TAF KBIF
Valid from the 21 at 14:00 until the 22 at 20:00 UTC


211359Z 2114/2220 25015G25KT 9999 SKC 520009 QNH2985INS
BECMG 2205/2206 25012KT 9999 FEW250 QNH2994INS TX30/2122Z TN14/2213Z
KZAB FIR / North America



MET'MAP, your aeronautical weather chart ! - Copyright ORBIFLY December 2007 - Disclaimer

ORBIFLY MET'MAP TEAM :

Programming & Development : Alexandra Zaïnal
Concept & Development : Baudouin d'Aumeries
Co-Development & Prog : Marc-Olivier Méhu
Technical & hardware support : Manuel Goepfert

Contact : metmap@orbifly.com




SOURCES & CREDITS :

   NOAA       Earth
Advisory